sensor_id;sensor_type;location;lat;lon;timestamp;pressure;altitude;pressure_sealevel;temperature;humidity
31717;BME280;18301;51.076;17.046;2023-07-24T00:03:48;99456.63;;;22.44;47.98
31717;BME280;18301;51.076;17.046;2023-07-24T00:08:50;99454.97;;;22.30;48.06
31717;BME280;18301;51.076;17.046;2023-07-24T00:13:51;99455.81;;;22.11;48.62
31717;BME280;18301;51.076;17.046;2023-07-24T00:18:53;99452.41;;;22.02;48.38
31717;BME280;18301;51.076;17.046;2023-07-24T00:23:54;99453.69;;;21.93;48.89
31717;BME280;18301;51.076;17.046;2023-07-24T00:28:56;99450.06;;;21.79;49.09
31717;BME280;18301;51.076;17.046;2023-07-24T00:33:57;99450.03;;;21.72;49.38
31717;BME280;18301;51.076;17.046;2023-07-24T00:39:01;99439.28;;;21.77;49.00
31717;BME280;18301;51.076;17.046;2023-07-24T00:44:03;99434.00;;;21.82;50.04
31717;BME280;18301;51.076;17.046;2023-07-24T00:49:05;99430.63;;;21.80;49.97
31717;BME280;18301;51.076;17.046;2023-07-24T00:54:07;99429.16;;;21.71;51.16
31717;BME280;18301;51.076;17.046;2023-07-24T00:59:08;99417.69;;;21.48;51.25
31717;BME280;18301;51.076;17.046;2023-07-24T01:04:10;99432.19;;;21.28;52.45
31717;BME280;18301;51.076;17.046;2023-07-24T01:09:11;99441.56;;;20.99;53.02
31717;BME280;18301;51.076;17.046;2023-07-24T01:14:23;99442.41;;;21.00;52.48
31717;BME280;18301;51.076;17.046;2023-07-24T01:19:40;99442.63;;;21.05;52.20
31717;BME280;18301;51.076;17.046;2023-07-24T01:25:10;99434.91;;;21.22;52.17
31717;BME280;18301;51.076;17.046;2023-07-24T01:30:16;99435.31;;;21.19;52.63
31717;BME280;18301;51.076;17.046;2023-07-24T01:35:18;99442.06;;;21.16;52.23
31717;BME280;18301;51.076;17.046;2023-07-24T01:40:20;99431.91;;;21.10;53.18
31717;BME280;18301;51.076;17.046;2023-07-24T01:45:22;99433.97;;;20.95;54.16
31717;BME280;18301;51.076;17.046;2023-07-24T01:50:24;99428.81;;;20.78;55.80
31717;BME280;18301;51.076;17.046;2023-07-24T01:55:26;99424.31;;;20.64;55.46
31717;BME280;18301;51.076;17.046;2023-07-24T02:00:27;99429.88;;;20.49;57.26
31717;BME280;18301;51.076;17.046;2023-07-24T02:05:30;99421.94;;;20.54;55.39
31717;BME280;18301;51.076;17.046;2023-07-24T02:10:31;99422.22;;;20.66;55.54
31717;BME280;18301;51.076;17.046;2023-07-24T02:15:33;99406.81;;;20.65;56.01
31717;BME280;18301;51.076;17.046;2023-07-24T02:20:34;99402.69;;;20.48;58.52
31717;BME280;18301;51.076;17.046;2023-07-24T02:25:36;99398.56;;;20.30;58.36
31717;BME280;18301;51.076;17.046;2023-07-24T02:30:39;99374.50;;;20.26;59.11
31717;BME280;18301;51.076;17.046;2023-07-24T02:35:41;99386.31;;;20.26;59.74
31717;BME280;18301;51.076;17.046;2023-07-24T02:40:44;99374.06;;;20.22;58.98
31717;BME280;18301;51.076;17.046;2023-07-24T02:45:46;99387.56;;;20.23;59.64
31717;BME280;18301;51.076;17.046;2023-07-24T02:50:48;99382.94;;;20.24;60.07
31717;BME280;18301;51.076;17.046;2023-07-24T02:55:50;99384.22;;;20.28;58.65
31717;BME280;18301;51.076;17.046;2023-07-24T03:00:51;99363.47;;;20.12;59.00
31717;BME280;18301;51.076;17.046;2023-07-24T03:05:53;99375.63;;;20.03;60.28
31717;BME280;18301;51.076;17.046;2023-07-24T03:10:54;99384.31;;;19.85;61.35
31717;BME280;18301;51.076;17.046;2023-07-24T03:15:57;99373.31;;;19.78;60.62
31717;BME280;18301;51.076;17.046;2023-07-24T03:20:59;99378.75;;;19.72;61.73
31717;BME280;18301;51.076;17.046;2023-07-24T03:26:01;99376.75;;;19.87;61.06
31717;BME280;18301;51.076;17.046;2023-07-24T03:31:02;99372.97;;;19.88;61.15
31717;BME280;18301;51.076;17.046;2023-07-24T03:36:04;99372.56;;;19.91;61.13
31717;BME280;18301;51.076;17.046;2023-07-24T03:41:06;99374.06;;;19.94;61.26
31717;BME280;18301;51.076;17.046;2023-07-24T03:46:07;99385.47;;;19.97;61.90
31717;BME280;18301;51.076;17.046;2023-07-24T03:51:09;99372.78;;;20.18;60.20
31717;BME280;18301;51.076;17.046;2023-07-24T03:56:10;99362.28;;;20.28;60.52
31717;BME280;18301;51.076;17.046;2023-07-24T04:01:12;99357.72;;;20.35;60.53
31717;BME280;18301;51.076;17.046;2023-07-24T04:06:13;99353.03;;;20.29;61.66
31717;BME280;18301;51.076;17.046;2023-07-24T04:11:15;99354.31;;;20.33;61.01
31717;BME280;18301;51.076;17.046;2023-07-24T04:16:16;99360.06;;;20.38;61.12
31717;BME280;18301;51.076;17.046;2023-07-24T04:21:18;99372.31;;;20.49;60.75
31717;BME280;18301;51.076;17.046;2023-07-24T04:26:19;99371.44;;;20.77;60.25
31717;BME280;18301;51.076;17.046;2023-07-24T04:31:21;99387.59;;;21.06;60.13
31717;BME280;18301;51.076;17.046;2023-07-24T04:36:22;99372.00;;;21.27;59.67
31717;BME280;18301;51.076;17.046;2023-07-24T04:41:24;99368.66;;;21.25;59.52
31717;BME280;18301;51.076;17.046;2023-07-24T04:46:25;99371.41;;;21.31;59.46
31717;BME280;18301;51.076;17.046;2023-07-24T04:51:27;99366.16;;;21.36;59.63
31717;BME280;18301;51.076;17.046;2023-07-24T04:56:29;99362.09;;;21.26;60.35
31717;BME280;18301;51.076;17.046;2023-07-24T05:01:31;99370.34;;;21.32;59.99
31717;BME280;18301;51.076;17.046;2023-07-24T05:06:32;99360.44;;;21.31;60.28
31717;BME280;18301;51.076;17.046;2023-07-24T05:11:34;99359.44;;;21.59;60.89
31717;BME280;18301;51.076;17.046;2023-07-24T05:16:35;99359.66;;;21.77;60.26
31717;BME280;18301;51.076;17.046;2023-07-24T05:21:37;99349.47;;;21.98;59.19
31717;BME280;18301;51.076;17.046;2023-07-24T05:26:38;99340.19;;;22.12;59.04
31717;BME280;18301;51.076;17.046;2023-07-24T05:31:40;99327.47;;;22.31;58.81
31717;BME280;18301;51.076;17.046;2023-07-24T05:36:41;99316.44;;;22.44;58.24
31717;BME280;18301;51.076;17.046;2023-07-24T05:41:43;99317.81;;;22.73;58.53
31717;BME280;18301;51.076;17.046;2023-07-24T05:46:44;99309.19;;;23.08;57.68
31717;BME280;18301;51.076;17.046;2023-07-24T05:51:46;99300.75;;;23.35;57.31
31717;BME280;18301;51.076;17.046;2023-07-24T05:56:47;99290.25;;;23.50;56.27
31717;BME280;18301;51.076;17.046;2023-07-24T06:01:49;99289.34;;;23.56;56.29
31717;BME280;18301;51.076;17.046;2023-07-24T06:06:50;99281.09;;;23.56;55.81
31717;BME280;18301;51.076;17.046;2023-07-24T06:11:52;99282.78;;;23.57;56.10
31717;BME280;18301;51.076;17.046;2023-07-24T06:16:53;99286.38;;;23.58;55.50
31717;BME280;18301;51.076;17.046;2023-07-24T06:21:54;99274.69;;;23.62;55.53
31717;BME280;18301;51.076;17.046;2023-07-24T06:26:56;99268.72;;;23.65;55.98
31717;BME280;18301;51.076;17.046;2023-07-24T06:31:57;99292.25;;;23.61;56.27
31717;BME280;18301;51.076;17.046;2023-07-24T06:36:59;99291.03;;;23.57;55.57
31717;BME280;18301;51.076;17.046;2023-07-24T06:42:17;99288.34;;;23.76;55.26
31717;BME280;18301;51.076;17.046;2023-07-24T06:47:18;99284.88;;;23.87;54.89
31717;BME280;18301;51.076;17.046;2023-07-24T06:52:20;99281.91;;;24.07;54.78
31717;BME280;18301;51.076;17.046;2023-07-24T06:57:21;99270.50;;;24.22;54.20
31717;BME280;18301;51.076;17.046;2023-07-24T07:02:23;99271.25;;;24.29;53.53
31717;BME280;18301;51.076;17.046;2023-07-24T07:07:24;99265.75;;;24.47;52.86
31717;BME280;18301;51.076;17.046;2023-07-24T07:12:26;99255.84;;;24.76;51.93
31717;BME280;18301;51.076;17.046;2023-07-24T07:17:27;99250.44;;;25.12;51.08
31717;BME280;18301;51.076;17.046;2023-07-24T07:22:29;99250.84;;;25.27;50.18
31717;BME280;18301;51.076;17.046;2023-07-24T07:27:30;99254.00;;;25.42;48.82
31717;BME280;18301;51.076;17.046;2023-07-24T07:32:32;99249.22;;;25.49;48.61
31717;BME280;18301;51.076;17.046;2023-07-24T07:37:34;99252.94;;;25.79;49.07
31717;BME280;18301;51.076;17.046;2023-07-24T07:42:36;99262.09;;;25.91;46.25
31717;BME280;18301;51.076;17.046;2023-07-24T07:47:40;99235.00;;;26.28;45.26
31717;BME280;18301;51.076;17.046;2023-07-24T07:52:41;99232.50;;;26.67;44.08
31717;BME280;18301;51.076;17.046;2023-07-24T07:57:43;99238.22;;;26.77;46.40
31717;BME280;18301;51.076;17.046;2023-07-24T08:02:44;99245.66;;;27.05;42.14
31717;BME280;18301;51.076;17.046;2023-07-24T08:07:46;99236.03;;;27.08;41.70
31717;BME280;18301;51.076;17.046;2023-07-24T08:12:48;99242.75;;;27.12;42.96
31717;BME280;18301;51.076;17.046;2023-07-24T08:17:49;99243.53;;;27.24;41.65
31717;BME280;18301;51.076;17.046;2023-07-24T08:22:51;99239.97;;;26.95;41.63
31717;BME280;18301;51.076;17.046;2023-07-24T08:27:52;99241.00;;;26.77;43.29
31717;BME280;18301;51.076;17.046;2023-07-24T08:33:06;99245.00;;;26.98;41.86
31717;BME280;18301;51.076;17.046;2023-07-24T08:38:07;99243.38;;;27.14;41.91
31717;BME280;18301;51.076;17.046;2023-07-24T08:43:09;99227.84;;;27.64;43.53
31717;BME280;18301;51.076;17.046;2023-07-24T08:48:10;99241.28;;;27.55;41.02
31717;BME280;18301;51.076;17.046;2023-07-24T08:53:13;99228.44;;;27.83;40.69
31717;BME280;18301;51.076;17.046;2023-07-24T08:58:14;99222.53;;;27.96;41.61
31717;BME280;18301;51.076;17.046;2023-07-24T09:03:17;99223.44;;;28.02;40.93
31717;BME280;18301;51.076;17.046;2023-07-24T09:08:40;99206.22;;;27.99;41.41
31717;BME280;18301;51.076;17.046;2023-07-24T09:13:42;99195.25;;;28.54;41.32
31717;BME280;18301;51.076;17.046;2023-07-24T09:18:44;99177.47;;;28.77;41.32
31717;BME280;18301;51.076;17.046;2023-07-24T09:23:46;99183.22;;;28.97;39.95
31717;BME280;18301;51.076;17.046;2023-07-24T09:28:53;99190.44;;;28.44;39.56
31717;BME280;18301;51.076;17.046;2023-07-24T09:33:55;99178.59;;;28.32;40.49
31717;BME280;18301;51.076;17.046;2023-07-24T09:39:00;99177.28;;;28.12;40.73
31717;BME280;18301;51.076;17.046;2023-07-24T09:44:03;99184.50;;;28.13;40.51
31717;BME280;18301;51.076;17.046;2023-07-24T09:49:04;99172.69;;;28.01;40.19
31717;BME280;18301;51.076;17.046;2023-07-24T09:54:19;99163.47;;;28.17;39.77
31717;BME280;18301;51.076;17.046;2023-07-24T09:59:23;99184.78;;;28.88;39.92
31717;BME280;18301;51.076;17.046;2023-07-24T10:04:25;99184.25;;;28.91;38.34
31717;BME280;18301;51.076;17.046;2023-07-24T10:09:28;99168.88;;;29.05;38.66
31717;BME280;18301;51.076;17.046;2023-07-24T10:14:31;99163.84;;;28.75;39.16
31717;BME280;18301;51.076;17.046;2023-07-24T10:19:42;99157.78;;;28.51;40.36
31717;BME280;18301;51.076;17.046;2023-07-24T10:24:45;99161.13;;;28.31;40.88
31717;BME280;18301;51.076;17.046;2023-07-24T10:29:58;99174.38;;;28.24;41.67
31717;BME280;18301;51.076;17.046;2023-07-24T10:35:06;99158.88;;;28.06;42.14
31717;BME280;18301;51.076;17.046;2023-07-24T10:40:21;99165.94;;;27.75;41.70
31717;BME280;18301;51.076;17.046;2023-07-24T10:45:22;99155.66;;;27.92;43.12
31717;BME280;18301;51.076;17.046;2023-07-24T10:50:24;99148.94;;;27.88;43.40
31717;BME280;18301;51.076;17.046;2023-07-24T10:55:26;99139.81;;;27.88;42.92
31717;BME280;18301;51.076;17.046;2023-07-24T11:00:28;99124.34;;;27.53;43.42
31717;BME280;18301;51.076;17.046;2023-07-24T11:05:30;99108.34;;;27.60;43.76
31717;BME280;18301;51.076;17.046;2023-07-24T11:10:32;99109.31;;;27.88;42.99
31717;BME280;18301;51.076;17.046;2023-07-24T11:15:34;99115.31;;;28.29;43.76
31717;BME280;18301;51.076;17.046;2023-07-24T11:20:45;99107.94;;;28.61;42.89
31717;BME280;18301;51.076;17.046;2023-07-24T11:25:53;99093.78;;;28.63;43.39
31717;BME280;18301;51.076;17.046;2023-07-24T11:30:55;99107.03;;;28.56;43.70
31717;BME280;18301;51.076;17.046;2023-07-24T11:36:03;99102.03;;;28.85;44.17
31717;BME280;18301;51.076;17.046;2023-07-24T11:41:08;99084.66;;;29.00;42.38
31717;BME280;18301;51.076;17.046;2023-07-24T11:46:09;99097.06;;;29.19;41.51
31717;BME280;18301;51.076;17.046;2023-07-24T11:51:12;99076.31;;;29.32;41.61
31717;BME280;18301;51.076;17.046;2023-07-24T11:56:15;99071.84;;;29.31;42.01
31717;BME280;18301;51.076;17.046;2023-07-24T12:01:17;99065.25;;;29.42;41.98
31717;BME280;18301;51.076;17.046;2023-07-24T12:06:18;99068.72;;;29.65;41.76
31717;BME280;18301;51.076;17.046;2023-07-24T12:11:21;99052.06;;;29.70;38.82
31717;BME280;18301;51.076;17.046;2023-07-24T12:16:23;99038.69;;;29.62;39.48
31717;BME280;18301;51.076;17.046;2023-07-24T12:21:25;99033.75;;;29.79;40.23
31717;BME280;18301;51.076;17.046;2023-07-24T12:26:26;99028.19;;;29.79;39.56
31717;BME280;18301;51.076;17.046;2023-07-24T12:31:29;99023.47;;;29.79;38.01
31717;BME280;18301;51.076;17.046;2023-07-24T12:36:31;99011.22;;;29.75;38.85
31717;BME280;18301;51.076;17.046;2023-07-24T12:41:32;99013.72;;;29.77;39.47
31717;BME280;18301;51.076;17.046;2023-07-24T12:46:34;98996.81;;;29.94;38.81
31717;BME280;18301;51.076;17.046;2023-07-24T12:51:36;99002.59;;;29.77;39.99
31717;BME280;18301;51.076;17.046;2023-07-24T12:56:37;98992.56;;;29.71;40.97
31717;BME280;18301;51.076;17.046;2023-07-24T13:01:39;98998.16;;;29.76;41.01
31717;BME280;18301;51.076;17.046;2023-07-24T13:06:41;98993.72;;;29.85;39.31
31717;BME280;18301;51.076;17.046;2023-07-24T13:11:42;98985.97;;;29.87;41.05
31717;BME280;18301;51.076;17.046;2023-07-24T13:16:44;98983.16;;;29.92;40.03
31717;BME280;18301;51.076;17.046;2023-07-24T13:21:45;98988.22;;;30.05;39.74
31717;BME280;18301;51.076;17.046;2023-07-24T13:26:48;98975.41;;;30.04;40.10
31717;BME280;18301;51.076;17.046;2023-07-24T13:31:50;98967.06;;;30.04;39.81
31717;BME280;18301;51.076;17.046;2023-07-24T13:36:53;98957.66;;;30.31;37.96
31717;BME280;18301;51.076;17.046;2023-07-24T13:41:55;98940.97;;;30.26;37.00
31717;BME280;18301;51.076;17.046;2023-07-24T13:46:57;98945.66;;;30.00;37.47
31717;BME280;18301;51.076;17.046;2023-07-24T13:51:58;98935.94;;;30.38;36.30
31717;BME280;18301;51.076;17.046;2023-07-24T13:57:00;98915.88;;;30.11;36.41
31717;BME280;18301;51.076;17.046;2023-07-24T14:02:01;98888.66;;;30.23;36.60
31717;BME280;18301;51.076;17.046;2023-07-24T14:07:03;98895.31;;;30.37;36.70
31717;BME280;18301;51.076;17.046;2023-07-24T14:12:05;98914.22;;;29.94;37.79
31717;BME280;18301;51.076;17.046;2023-07-24T14:17:07;98916.72;;;29.96;36.96
31717;BME280;18301;51.076;17.046;2023-07-24T14:22:08;98906.44;;;30.12;36.65
31717;BME280;18301;51.076;17.046;2023-07-24T14:27:10;98896.41;;;30.11;37.33
31717;BME280;18301;51.076;17.046;2023-07-24T14:32:11;98883.59;;;29.89;37.06
31717;BME280;18301;51.076;17.046;2023-07-24T14:37:13;98882.22;;;29.71;38.15
31717;BME280;18301;51.076;17.046;2023-07-24T14:42:14;98863.28;;;29.63;37.79
31717;BME280;18301;51.076;17.046;2023-07-24T14:47:16;98858.59;;;29.84;37.75
31717;BME280;18301;51.076;17.046;2023-07-24T14:52:18;98836.88;;;29.71;37.83
31717;BME280;18301;51.076;17.046;2023-07-24T14:57:19;98831.31;;;29.71;37.78
31717;BME280;18301;51.076;17.046;2023-07-24T15:02:26;98829.94;;;29.63;38.51
31717;BME280;18301;51.076;17.046;2023-07-24T15:07:28;98822.16;;;29.65;37.63
31717;BME280;18301;51.076;17.046;2023-07-24T15:12:29;98809.06;;;29.60;38.47
31717;BME280;18301;51.076;17.046;2023-07-24T15:17:32;98809.66;;;29.63;38.35
31717;BME280;18301;51.076;17.046;2023-07-24T15:22:34;98797.91;;;29.45;38.38
31717;BME280;18301;51.076;17.046;2023-07-24T15:27:35;98793.75;;;29.38;39.17
31717;BME280;18301;51.076;17.046;2023-07-24T15:32:37;98789.00;;;29.28;39.27
31717;BME280;18301;51.076;17.046;2023-07-24T15:37:39;98782.34;;;29.34;39.42
31717;BME280;18301;51.076;17.046;2023-07-24T15:42:40;98772.63;;;29.42;39.26
31717;BME280;18301;51.076;17.046;2023-07-24T15:47:42;98761.78;;;29.35;39.48
31717;BME280;18301;51.076;17.046;2023-07-24T15:52:43;98759.00;;;29.30;39.52
31717;BME280;18301;51.076;17.046;2023-07-24T15:57:45;98757.06;;;29.35;39.40
31717;BME280;18301;51.076;17.046;2023-07-24T16:02:46;98746.22;;;29.29;39.60
31717;BME280;18301;51.076;17.046;2023-07-24T16:07:48;98752.59;;;29.19;39.90
31717;BME280;18301;51.076;17.046;2023-07-24T16:12:50;98751.75;;;29.08;40.40
31717;BME280;18301;51.076;17.046;2023-07-24T16:17:51;98762.22;;;28.96;39.97
31717;BME280;18301;51.076;17.046;2023-07-24T16:22:56;98766.88;;;28.70;41.09
31717;BME280;18301;51.076;17.046;2023-07-24T16:27:57;98755.25;;;28.73;40.52
31717;BME280;18301;51.076;17.046;2023-07-24T16:32:59;98742.22;;;28.79;41.07
31717;BME280;18301;51.076;17.046;2023-07-24T16:38:00;98731.94;;;28.79;41.65
31717;BME280;18301;51.076;17.046;2023-07-24T16:43:06;98725.78;;;28.72;42.79
31717;BME280;18301;51.076;17.046;2023-07-24T16:48:07;98703.28;;;28.58;43.62
31717;BME280;18301;51.076;17.046;2023-07-24T16:53:09;98696.84;;;28.48;43.69
31717;BME280;18301;51.076;17.046;2023-07-24T16:58:11;98718.69;;;28.34;45.06
31717;BME280;18301;51.076;17.046;2023-07-24T17:03:12;98726.16;;;28.28;44.15
31717;BME280;18301;51.076;17.046;2023-07-24T17:08:14;98731.38;;;28.19;44.40
31717;BME280;18301;51.076;17.046;2023-07-24T17:13:15;98721.03;;;28.05;44.70
31717;BME280;18301;51.076;17.046;2023-07-24T17:18:17;98706.84;;;27.96;45.24
31717;BME280;18301;51.076;17.046;2023-07-24T17:23:19;98708.47;;;27.87;45.32
31717;BME280;18301;51.076;17.046;2023-07-24T17:28:20;98696.72;;;27.74;46.01
31717;BME280;18301;51.076;17.046;2023-07-24T17:33:22;98708.28;;;27.66;46.85
31717;BME280;18301;51.076;17.046;2023-07-24T17:38:26;98712.06;;;27.55;46.18
31717;BME280;18301;51.076;17.046;2023-07-24T17:43:28;98707.28;;;27.45;46.64
31717;BME280;18301;51.076;17.046;2023-07-24T17:48:29;98701.97;;;27.39;46.93
31717;BME280;18301;51.076;17.046;2023-07-24T17:53:31;98701.91;;;27.28;48.15
31717;BME280;18301;51.076;17.046;2023-07-24T17:58:32;98691.13;;;27.32;48.17
31717;BME280;18301;51.076;17.046;2023-07-24T18:03:34;98684.75;;;27.31;48.58
31717;BME280;18301;51.076;17.046;2023-07-24T18:08:36;98683.34;;;27.29;48.13
31717;BME280;18301;51.076;17.046;2023-07-24T18:13:37;98683.59;;;27.27;48.17
31717;BME280;18301;51.076;17.046;2023-07-24T18:18:38;98680.81;;;27.27;48.66
31717;BME280;18301;51.076;17.046;2023-07-24T18:23:40;98681.94;;;27.26;48.83
31717;BME280;18301;51.076;17.046;2023-07-24T18:28:41;98689.06;;;27.17;48.65
31717;BME280;18301;51.076;17.046;2023-07-24T18:33:43;98693.41;;;27.13;48.24
31717;BME280;18301;51.076;17.046;2023-07-24T18:38:45;98697.72;;;26.99;49.50
31717;BME280;18301;51.076;17.046;2023-07-24T18:43:46;98699.28;;;26.90;49.59
31717;BME280;18301;51.076;17.046;2023-07-24T18:48:48;98694.09;;;26.71;50.03
31717;BME280;18301;51.076;17.046;2023-07-24T18:53:52;98682.88;;;26.56;50.15
31717;BME280;18301;51.076;17.046;2023-07-24T18:58:54;98684.59;;;26.40;51.50
31717;BME280;18301;51.076;17.046;2023-07-24T19:03:55;98700.22;;;26.29;52.13
31717;BME280;18301;51.076;17.046;2023-07-24T19:08:57;98690.69;;;26.20;51.76
31717;BME280;18301;51.076;17.046;2023-07-24T19:13:58;98696.47;;;25.97;53.39
31717;BME280;18301;51.076;17.046;2023-07-24T19:19:00;98685.09;;;25.76;54.64
31717;BME280;18301;51.076;17.046;2023-07-24T19:24:05;98679.50;;;25.71;54.05
31717;BME280;18301;51.076;17.046;2023-07-24T19:29:07;98655.81;;;25.58;55.52
31717;BME280;18301;51.076;17.046;2023-07-24T19:34:09;98653.22;;;25.52;56.11
31717;BME280;18301;51.076;17.046;2023-07-24T19:39:10;98660.38;;;25.47;56.94
31717;BME280;18301;51.076;17.046;2023-07-24T19:44:12;98665.28;;;25.45;59.35
31717;BME280;18301;51.076;17.046;2023-07-24T19:49:13;98657.19;;;25.39;60.27
31717;BME280;18301;51.076;17.046;2023-07-24T19:54:15;98658.22;;;25.16;61.21
31717;BME280;18301;51.076;17.046;2023-07-24T19:59:16;98661.56;;;25.06;60.82
31717;BME280;18301;51.076;17.046;2023-07-24T20:04:18;98659.97;;;24.93;62.36
31717;BME280;18301;51.076;17.046;2023-07-24T20:09:19;98670.53;;;24.96;58.92
31717;BME280;18301;51.076;17.046;2023-07-24T20:14:21;98670.03;;;24.99;59.17
31717;BME280;18301;51.076;17.046;2023-07-24T20:19:22;98678.31;;;24.99;58.73
31717;BME280;18301;51.076;17.046;2023-07-24T20:24:24;98667.84;;;25.01;56.49
31717;BME280;18301;51.076;17.046;2023-07-24T20:29:25;98671.00;;;24.93;54.84
31717;BME280;18301;51.076;17.046;2023-07-24T20:34:27;98672.22;;;24.97;55.47
31717;BME280;18301;51.076;17.046;2023-07-24T20:39:28;98676.69;;;24.87;55.83
31717;BME280;18301;51.076;17.046;2023-07-24T20:44:30;98685.72;;;24.82;55.14
31717;BME280;18301;51.076;17.046;2023-07-24T20:49:32;98677.34;;;24.77;54.18
31717;BME280;18301;51.076;17.046;2023-07-24T20:54:35;98668.97;;;24.72;54.00
31717;BME280;18301;51.076;17.046;2023-07-24T20:59:37;98676.84;;;24.63;53.82
31717;BME280;18301;51.076;17.046;2023-07-24T21:04:38;98678.16;;;24.61;52.01
31717;BME280;18301;51.076;17.046;2023-07-24T21:09:40;98671.22;;;24.58;51.86
31717;BME280;18301;51.076;17.046;2023-07-24T21:14:42;98679.81;;;24.62;50.90
31717;BME280;18301;51.076;17.046;2023-07-24T21:19:43;98688.84;;;24.57;51.52
31717;BME280;18301;51.076;17.046;2023-07-24T21:24:45;98679.22;;;24.60;51.44
31717;BME280;18301;51.076;17.046;2023-07-24T21:29:49;98669.44;;;24.52;51.71
31717;BME280;18301;51.076;17.046;2023-07-24T21:34:51;98683.41;;;24.62;51.58
31717;BME280;18301;51.076;17.046;2023-07-24T21:39:53;98698.34;;;24.49;52.73
31717;BME280;18301;51.076;17.046;2023-07-24T21:44:54;98699.09;;;24.45;52.68
31717;BME280;18301;51.076;17.046;2023-07-24T21:49:56;98707.69;;;24.37;53.67
31717;BME280;18301;51.076;17.046;2023-07-24T21:54:57;98712.63;;;24.23;53.51
31717;BME280;18301;51.076;17.046;2023-07-24T21:59:58;98702.72;;;24.10;54.17
31717;BME280;18301;51.076;17.046;2023-07-24T22:05:00;98714.84;;;23.97;54.71
31717;BME280;18301;51.076;17.046;2023-07-24T22:10:02;98719.25;;;23.98;54.64
31717;BME280;18301;51.076;17.046;2023-07-24T22:15:04;98711.88;;;23.99;54.78
31717;BME280;18301;51.076;17.046;2023-07-24T22:20:06;98715.94;;;23.96;54.95
31717;BME280;18301;51.076;17.046;2023-07-24T22:25:08;98704.19;;;23.89;55.36
31717;BME280;18301;51.076;17.046;2023-07-24T22:30:10;98714.50;;;23.82;55.54
31717;BME280;18301;51.076;17.046;2023-07-24T22:35:12;98726.47;;;23.87;55.70
31717;BME280;18301;51.076;17.046;2023-07-24T22:40:13;98735.09;;;23.91;54.99
31717;BME280;18301;51.076;17.046;2023-07-24T22:45:15;98731.75;;;23.77;56.52
31717;BME280;18301;51.076;17.046;2023-07-24T22:50:17;98738.31;;;23.76;55.79
31717;BME280;18301;51.076;17.046;2023-07-24T22:55:18;98744.78;;;23.70;56.27
31717;BME280;18301;51.076;17.046;2023-07-24T23:00:20;98761.88;;;23.60;56.62
31717;BME280;18301;51.076;17.046;2023-07-24T23:05:22;98759.50;;;23.52;57.13
31717;BME280;18301;51.076;17.046;2023-07-24T23:10:24;98759.59;;;23.57;56.84
31717;BME280;18301;51.076;17.046;2023-07-24T23:15:25;98757.94;;;23.56;57.31
31717;BME280;18301;51.076;17.046;2023-07-24T23:20:27;98767.28;;;23.55;56.98
31717;BME280;18301;51.076;17.046;2023-07-24T23:25:28;98764.97;;;23.40;58.16
31717;BME280;18301;51.076;17.046;2023-07-24T23:30:38;98760.31;;;23.41;57.65
31717;BME280;18301;51.076;17.046;2023-07-24T23:35:40;98768.69;;;23.46;57.62
31717;BME280;18301;51.076;17.046;2023-07-24T23:40:42;98777.56;;;23.06;60.66
31717;BME280;18301;51.076;17.046;2023-07-24T23:45:43;98777.09;;;23.09;59.92
31717;BME280;18301;51.076;17.046;2023-07-24T23:50:45;98779.84;;;23.09;60.39
31717;BME280;18301;51.076;17.046;2023-07-24T23:55:46;98773.59;;;22.84;60.53
